Time;durP1;ratioP1;P1;durP2;ratioP2;P2;SDS_P1;SDS_P2;PMS_P1;PMS_P2;Temp;Humidity;BMP_temperature;BMP_pressure;BME280_temperature;BME280_humidity;BME280_pressure;Samples;Min_cycle;Max_cycle;Signal;HPM_P1;HPM_P2
2022/08/29 00:01:39;;;;;;;19.00;17.30;;;;;;;17.82;100.00;97871.67;105478;1283;24249;-86
2022/08/29 00:04:07;;;;;;;16.40;14.90;;;;;;;17.81;100.00;97867.67;105591;1282;22622;-86
2022/08/29 00:06:35;;;;;;;16.50;14.80;;;;;;;17.79;100.00;97869.03;105596;1282;23247;-86
2022/08/29 00:09:03;;;;;;;16.70;15.10;;;;;;;17.78;100.00;97870.48;105601;1282;25576;-87
2022/08/29 00:11:31;;;;;;;15.10;13.60;;;;;;;17.79;100.00;97872.14;105594;1282;24216;-85
2022/08/29 00:13:59;;;;;;;13.70;12.30;;;;;;;17.80;100.00;97869.14;105552;1282;25355;-86
2022/08/29 00:16:28;;;;;;;12.70;11.50;;;;;;;17.81;100.00;97871.97;105637;1282;24262;-85
2022/08/29 00:18:56;;;;;;;13.20;12.00;;;;;;;17.83;100.00;97870.06;105754;1282;23942;-86
2022/08/29 00:21:25;;;;;;;12.90;11.50;;;;;;;17.81;100.00;97868.00;105466;1282;25239;-85
2022/08/29 00:23:53;;;;;;;14.50;10.40;;;;;;;17.79;100.00;97866.60;105515;1282;22714;-85
2022/08/29 00:26:22;;;;;;;11.50;10.40;;;;;;;17.75;100.00;97866.00;105593;1281;22626;-83
2022/08/29 00:28:53;;;;;;;11.50;10.50;;;;;;;17.73;100.00;97867.02;105591;1282;22717;-84
2022/08/29 00:31:21;;;;;;;12.20;11.00;;;;;;;17.73;100.00;97866.58;105462;1282;24218;-85
2022/08/29 00:33:50;;;;;;;11.60;10.50;;;;;;;17.73;100.00;97864.78;105460;1282;24127;-85
2022/08/29 00:36:18;;;;;;;12.20;10.90;;;;;;;17.74;100.00;97864.80;105336;1283;24348;-85
2022/08/29 00:38:49;;;;;;;13.20;11.80;;;;;;;17.72;100.00;97861.11;105686;1282;23977;-84
2022/08/29 00:41:17;;;;;;;12.70;11.40;;;;;;;17.70;100.00;97856.85;105580;1282;22654;-85
2022/08/29 00:43:46;;;;;;;14.90;12.40;;;;;;;17.68;100.00;97856.09;105617;1282;24288;-84
2022/08/29 00:46:33;;;;;;;12.80;11.70;;;;;;;17.67;100.00;97849.90;105571;1282;25360;-85
2022/08/29 00:49:12;;;;;;;14.50;13.20;;;;;;;17.67;100.00;97846.56;105497;1283;25431;-85
2022/08/29 00:51:41;;;;;;;15.70;13.10;;;;;;;17.66;100.00;97850.90;105602;1282;25958;-84
2022/08/29 00:54:10;;;;;;;14.60;13.20;;;;;;;17.67;100.00;97850.67;105480;1282;25652;-86
2022/08/29 00:56:40;;;;;;;14.10;12.70;;;;;;;17.66;100.00;97854.15;105582;1282;25382;-86
2022/08/29 00:59:16;;;;;;;15.50;13.90;;;;;;;17.68;100.00;97859.96;105612;1282;23492;-85
2022/08/29 01:01:45;;;;;;;15.20;13.60;;;;;;;17.67;100.00;97857.92;105613;1282;26517;-85
2022/08/29 01:04:13;;;;;;;16.00;14.30;;;;;;;17.69;100.00;97860.79;105657;1281;22874;-85
2022/08/29 01:06:52;;;;;;;16.70;14.00;;;;;;;17.69;100.00;97861.73;105496;1283;23997;-85
2022/08/29 01:09:22;;;;;;;15.00;13.20;;;;;;;17.72;100.00;97859.92;105732;1282;22572;-85
2022/08/29 01:14:40;;;;;;;17.10;15.20;;;;;;;17.72;100.00;97864.13;107430;1281;22534;-86
2022/08/29 01:17:09;;;;;;;14.40;12.70;;;;;;;17.71;100.00;97859.73;108149;1281;23940;-84
2022/08/29 01:19:49;;;;;;;15.00;13.80;;;;;;;17.72;100.00;97864.20;108123;1282;22713;-84
2022/08/29 01:22:28;;;;;;;14.30;13.00;;;;;;;17.71;100.00;97861.30;106853;1282;24333;-85
2022/08/29 01:24:57;;;;;;;15.20;13.70;;;;;;;17.77;100.00;97861.87;107287;1281;22569;-84
2022/08/29 01:27:29;;;;;;;16.50;13.40;;;;;;;17.78;100.00;97861.73;107485;1282;22568;-84
2022/08/29 01:29:57;;;;;;;13.80;12.50;;;;;;;17.79;100.00;97858.64;106821;1282;22555;-84
2022/08/29 01:32:26;;;;;;;13.90;12.50;;;;;;;17.79;100.00;97863.97;106348;1283;26494;-86
2022/08/29 01:34:54;;;;;;;15.10;12.90;;;;;;;17.76;100.00;97862.54;105715;1282;24098;-85
2022/08/29 01:37:23;;;;;;;13.40;12.10;;;;;;;17.77;100.00;97859.05;105295;1282;22580;-85
2022/08/29 01:39:51;;;;;;;14.30;12.60;;;;;;;17.77;100.00;97865.81;105653;1282;25302;-86
2022/08/29 01:42:23;;;;;;;13.80;12.50;;;;;;;17.77;100.00;97866.30;105667;1282;22813;-86
2022/08/29 01:44:55;;;;;;;16.30;14.50;;;;;;;17.76;100.00;97869.15;105683;1282;22549;-86
2022/08/29 01:47:28;;;;;;;14.90;12.70;;;;;;;17.75;100.00;97871.54;105695;1282;24263;-86
2022/08/29 01:49:56;;;;;;;12.60;11.40;;;;;;;17.76;100.00;97876.08;105662;1282;22718;-87
2022/08/29 01:52:24;;;;;;;14.50;13.00;;;;;;;17.75;100.00;97878.39;105675;1282;25283;-87
2022/08/29 01:54:52;;;;;;;13.10;11.90;;;;;;;17.76;100.00;97881.52;105682;1282;22566;-87
2022/08/29 01:57:20;;;;;;;14.80;13.20;;;;;;;17.78;100.00;97881.99;105691;1282;24296;-87
2022/08/29 01:59:48;;;;;;;14.90;12.20;;;;;;;17.77;100.00;97884.73;105662;1282;22717;-87
2022/08/29 02:02:25;;;;;;;13.70;12.40;;;;;;;17.74;100.00;97885.38;105395;1282;23006;-86
2022/08/29 02:04:56;;;;;;;15.00;13.10;;;;;;;17.75;100.00;97885.62;105337;1283;24251;-86
2022/08/29 02:07:24;;;;;;;16.60;13.40;;;;;;;17.75;100.00;97884.77;105360;1282;24199;-87
2022/08/29 02:09:52;;;;;;;17.10;13.30;;;;;;;17.76;100.00;97888.69;105577;1282;22791;-86
2022/08/29 02:12:21;;;;;;;14.90;13.30;;;;;;;17.74;100.00;97889.58;105671;1282;25490;-87
2022/08/29 02:14:49;;;;;;;14.80;12.50;;;;;;;17.70;100.00;97892.04;105628;1282;22588;-85
2022/08/29 02:17:18;;;;;;;15.60;13.30;;;;;;;17.68;100.00;97887.37;105635;1282;23276;-84
2022/08/29 02:19:46;;;;;;;15.50;13.90;;;;;;;17.68;100.00;97892.58;105427;1282;22616;-85
2022/08/29 02:22:15;;;;;;;17.90;14.20;;;;;;;17.66;100.00;97890.44;105635;1282;25222;-84
2022/08/29 02:24:43;;;;;;;16.00;12.60;;;;;;;17.62;100.00;97889.23;105622;1282;24233;-86
2022/08/29 02:27:11;;;;;;;18.40;14.70;;;;;;;17.58;100.00;97888.26;105604;1282;22584;-85
2022/08/29 02:29:39;;;;;;;16.00;14.40;;;;;;;17.53;100.00;97892.92;105630;1282;24033;-86
2022/08/29 02:32:12;;;;;;;17.70;14.30;;;;;;;17.50;100.00;97891.91;105640;1282;22537;-86
2022/08/29 02:34:45;;;;;;;16.70;15.20;;;;;;;17.47;100.00;97896.09;105638;1282;23073;-86
2022/08/29 02:37:16;;;;;;;16.40;14.70;;;;;;;17.41;100.00;97896.88;105643;1282;22541;-87
2022/08/29 02:39:44;;;;;;;17.70;15.50;;;;;;;17.37;100.00;97897.42;105671;1282;25371;-88
2022/08/29 02:42:12;;;;;;;19.50;15.10;;;;;;;17.36;100.00;97898.82;105620;1281;22620;-85
2022/08/29 02:44:40;;;;;;;18.80;15.10;;;;;;;17.37;100.00;97897.75;105691;1282;22550;-85
2022/08/29 02:47:09;;;;;;;17.80;15.70;;;;;;;17.36;100.00;97896.87;105615;1282;22541;-86
2022/08/29 02:49:38;;;;;;;16.60;15.00;;;;;;;17.35;100.00;97898.30;105625;1282;22560;-85
2022/08/29 02:52:07;;;;;;;18.20;16.30;;;;;;;17.32;100.00;97897.90;105597;1282;22704;-86
2022/08/29 02:54:36;;;;;;;22.70;16.10;;;;;;;17.29;100.00;97897.26;105699;1282;22729;-85
2022/08/29 02:57:05;;;;;;;20.80;16.90;;;;;;;17.26;100.00;97899.77;105701;1282;25246;-86
2022/08/29 02:59:33;;;;;;;21.50;16.30;;;;;;;17.25;100.00;97896.13;105457;1282;22781;-86
2022/08/29 03:02:01;;;;;;;18.30;16.40;;;;;;;17.24;100.00;97896.58;105780;1282;25341;-85
2022/08/29 03:04:29;;;;;;;19.30;16.30;;;;;;;17.22;100.00;97894.88;105672;1282;22591;-85
2022/08/29 03:06:57;;;;;;;18.60;16.60;;;;;;;17.21;100.00;97892.54;105673;1282;23548;-86
2022/08/29 03:09:25;;;;;;;18.60;16.60;;;;;;;17.22;100.00;97897.30;105689;1282;22755;-85
2022/08/29 03:11:55;;;;;;;19.60;16.20;;;;;;;17.23;100.00;97897.23;105710;1282;22708;-85
2022/08/29 03:14:24;;;;;;;21.70;16.50;;;;;;;17.21;100.00;97904.34;105646;1282;22769;-86
2022/08/29 03:16:52;;;;;;;20.80;17.40;;;;;;;17.20;100.00;97906.35;105671;1282;23240;-86
2022/08/29 03:19:21;;;;;;;17.70;15.50;;;;;;;17.20;100.00;97908.45;105721;1282;24425;-83
2022/08/29 03:21:50;;;;;;;20.40;16.80;;;;;;;17.21;100.00;97910.40;105455;1282;22561;-85
2022/08/29 03:24:18;;;;;;;20.60;17.30;;;;;;;17.22;100.00;97909.83;105456;1282;25274;-85
2022/08/29 03:26:54;;;;;;;19.00;16.20;;;;;;;17.21;100.00;97912.84;105444;1282;25419;-84
2022/08/29 03:29:25;;;;;;;21.40;17.00;;;;;;;17.21;100.00;97912.74;105402;1282;22541;-84
2022/08/29 03:31:57;;;;;;;16.50;14.80;;;;;;;17.19;100.00;97915.71;105464;1282;22561;-84
2022/08/29 03:34:29;;;;;;;19.60;15.20;;;;;;;17.18;100.00;97913.20;105469;1281;22570;-84
2022/08/29 03:36:58;;;;;;;23.70;17.60;;;;;;;17.18;100.00;97915.23;105440;1282;24303;-84
2022/08/29 03:39:26;;;;;;;17.30;15.50;;;;;;;17.15;100.00;97911.23;105410;1282;22620;-84
2022/08/29 03:41:55;;;;;;;19.20;16.30;;;;;;;17.14;100.00;97917.20;105403;1282;25268;-85
2022/08/29 03:44:23;;;;;;;20.30;15.50;;;;;;;17.12;100.00;97917.98;105545;1282;25313;-84
2022/08/29 03:46:51;;;;;;;19.90;16.60;;;;;;;17.11;100.00;97918.64;105387;1282;22703;-84
2022/08/29 03:49:19;;;;;;;19.40;15.40;;;;;;;17.08;100.00;97926.11;105437;1282;22630;-85
2022/08/29 03:51:48;;;;;;;17.70;15.90;;;;;;;17.08;100.00;97926.02;105479;1282;22698;-85
2022/08/29 03:54:16;;;;;;;20.10;18.10;;;;;;;17.06;100.00;97932.58;105430;1282;24395;-84
2022/08/29 03:56:45;;;;;;;23.80;17.30;;;;;;;17.04;100.00;97932.23;105403;1282;24277;-85
2022/08/29 03:59:14;;;;;;;22.10;17.80;;;;;;;17.07;100.00;97934.40;105426;1282;24135;-85
2022/08/29 04:01:42;;;;;;;23.60;20.00;;;;;;;17.04;100.00;97934.61;105413;1281;25387;-85
2022/08/29 04:05:05;;;;;;;22.50;19.30;;;;;;;17.01;100.00;97935.67;105499;1282;22554;-84
2022/08/29 04:07:00;;;;;;;22.60;19.70;;;;;;;16.98;100.00;97936.08;105476;1282;22703;-85
2022/08/29 04:09:29;;;;;;;26.10;19.50;;;;;;;16.97;100.00;97941.46;105496;1282;24256;-83
2022/08/29 04:11:57;;;;;;;20.60;18.50;;;;;;;16.95;100.00;97940.21;105433;1282;25419;-83
2022/08/29 04:14:26;;;;;;;24.60;19.30;;;;;;;16.95;100.00;97946.14;105387;1282;22734;-84
2022/08/29 04:16:54;;;;;;;25.00;19.00;;;;;;;16.95;100.00;97948.88;105425;1282;22739;-84
2022/08/29 04:19:22;;;;;;;21.80;18.40;;;;;;;16.95;100.00;97952.76;105462;1282;25367;-85
2022/08/29 04:21:50;;;;;;;20.00;16.80;;;;;;;16.95;100.00;97959.45;105764;1281;24380;-84
2022/08/29 04:24:18;;;;;;;25.30;18.60;;;;;;;16.93;100.00;97961.94;105687;1281;22872;-85
2022/08/29 04:26:46;;;;;;;22.60;17.70;;;;;;;16.94;100.00;97967.80;105408;1281;25456;-85
2022/08/29 04:29:14;;;;;;;21.90;17.60;;;;;;;16.94;100.00;97971.16;105700;1281;22544;-85
2022/08/29 04:31:43;;;;;;;22.00;16.80;;;;;;;16.93;100.00;97974.15;105906;1281;22573;-85
2022/08/29 04:34:12;;;;;;;21.70;16.90;;;;;;;16.95;100.00;97977.80;105723;1281;22683;-84
2022/08/29 04:36:44;;;;;;;26.60;17.50;;;;;;;16.96;100.00;97984.45;106051;1281;23079;-85
2022/08/29 04:39:12;;;;;;;19.70;16.60;;;;;;;16.93;100.00;97983.89;107443;1281;22553;-85
2022/08/29 04:41:42;;;;;;;18.70;16.30;;;;;;;16.90;100.00;97985.17;105459;1282;24109;-86
2022/08/29 04:44:11;;;;;;;19.00;16.10;;;;;;;16.88;100.00;97987.69;105807;1281;22575;-86
2022/08/29 04:46:39;;;;;;;22.60;16.00;;;;;;;16.87;100.00;97991.38;105757;1281;25248;-87
2022/08/29 04:49:08;;;;;;;21.50;16.00;;;;;;;16.87;100.00;97990.20;105714;1281;25293;-87
2022/08/29 04:51:36;;;;;;;21.50;17.30;;;;;;;16.86;100.00;97992.90;105765;1281;24290;-87
2022/08/29 04:54:05;;;;;;;19.20;15.00;;;;;;;16.84;100.00;97995.80;105762;1281;24220;-87
2022/08/29 04:56:36;;;;;;;20.00;15.50;;;;;;;16.85;100.00;97999.30;105424;1281;22713;-87
2022/08/29 04:59:09;;;;;;;21.40;14.90;;;;;;;16.84;100.00;97999.97;105788;1281;25361;-86
2022/08/29 05:01:37;;;;;;;20.60;16.30;;;;;;;16.84;100.00;98003.61;105789;1281;22690;-85
2022/08/29 05:04:09;;;;;;;17.00;15.20;;;;;;;16.82;100.00;98006.77;105739;1281;22566;-86
2022/08/29 05:06:41;;;;;;;16.60;14.40;;;;;;;16.83;100.00;98006.25;105728;1281;26086;-85
2022/08/29 05:09:09;;;;;;;15.60;14.10;;;;;;;16.83;100.00;98009.97;105728;1281;24479;-86
2022/08/29 05:11:38;;;;;;;16.90;14.70;;;;;;;16.84;100.00;98013.95;105715;1281;22658;-86
2022/08/29 05:14:07;;;;;;;15.60;13.80;;;;;;;16.81;100.00;98013.89;105728;1281;22544;-87
2022/08/29 05:16:36;;;;;;;17.50;14.60;;;;;;;16.81;100.00;98018.46;105489;1281;23097;-87
2022/08/29 05:19:06;;;;;;;16.00;13.40;;;;;;;16.82;100.00;98017.88;105697;1281;25223;-87
2022/08/29 05:21:38;;;;;;;16.40;13.40;;;;;;;16.83;100.00;98018.06;105768;1281;24428;-87
2022/08/29 05:24:10;;;;;;;15.30;12.90;;;;;;;16.82;100.00;98024.00;105796;1281;22570;-87
2022/08/29 05:26:42;;;;;;;14.30;12.80;;;;;;;16.84;100.00;98026.80;105799;1281;24284;-87
2022/08/29 05:29:12;;;;;;;15.10;11.70;;;;;;;16.83;100.00;98030.33;105785;1281;25423;-87
2022/08/29 05:31:40;;;;;;;18.80;13.40;;;;;;;16.83;100.00;98032.29;105736;1281;23940;-87
2022/08/29 05:34:13;;;;;;;16.50;12.40;;;;;;;16.87;100.00;98029.62;105560;1282;22614;-87
2022/08/29 05:37:04;;;;;;;13.50;12.10;;;;;;;16.86;100.00;98033.88;105749;1281;22883;-85
2022/08/29 05:39:34;;;;;;;15.00;12.00;;;;;;;16.87;100.00;98030.57;105736;1281;22537;-87
2022/08/29 05:42:04;;;;;;;14.90;11.00;;;;;;;16.88;100.00;98033.63;105720;1281;24287;-87
2022/08/29 05:44:32;;;;;;;15.40;11.30;;;;;;;16.90;100.00;98041.55;105392;1281;25422;-86
2022/08/29 05:47:04;;;;;;;12.60;11.30;;;;;;;16.89;100.00;98041.86;105715;1281;22534;-87
2022/08/29 05:49:38;;;;;;;14.00;10.40;;;;;;;16.93;100.00;98044.48;105790;1281;22551;-86
2022/08/29 05:52:07;;;;;;;13.60;10.40;;;;;;;16.96;100.00;98045.20;105415;1281;24413;-85
2022/08/29 05:54:37;;;;;;;13.80;10.70;;;;;;;17.01;100.00;98045.28;105696;1281;22711;-86
2022/08/29 05:57:07;;;;;;;14.10;10.50;;;;;;;17.08;100.00;98044.65;105760;1281;22547;-85
2022/08/29 05:59:36;;;;;;;14.70;10.60;;;;;;;17.15;100.00;98047.55;105738;1281;25327;-87
2022/08/29 06:02:07;;;;;;;12.90;10.40;;;;;;;17.24;100.00;98049.69;105746;1281;22635;-85
2022/08/29 06:04:35;;;;;;;10.90;9.70;;;;;;;17.28;100.00;98048.89;105788;1281;22775;-84
2022/08/29 06:07:05;;;;;;;11.90;9.20;;;;;;;17.29;100.00;98054.75;105657;1281;22702;-85
2022/08/29 06:09:35;;;;;;;11.40;9.30;;;;;;;17.32;100.00;98054.86;105806;1281;25413;-86
2022/08/29 06:12:03;;;;;;;12.70;8.70;;;;;;;17.29;100.00;98054.46;105712;1281;24282;-87
2022/08/29 06:14:32;;;;;;;16.70;9.30;;;;;;;17.29;100.00;98059.20;105707;1281;25404;-88
2022/08/29 06:17:01;;;;;;;13.20;8.70;;;;;;;17.32;100.00;98063.82;105518;1282;25241;-86
2022/08/29 06:19:33;;;;;;;12.90;8.70;;;;;;;17.36;100.00;98070.09;105713;1281;23424;-85
2022/08/29 06:22:04;;;;;;;13.00;9.00;;;;;;;17.41;100.00;98076.02;105739;1281;24384;-86
2022/08/29 06:24:38;;;;;;;11.70;8.60;;;;;;;17.45;100.00;98080.17;105698;1281;24309;-85
2022/08/29 06:27:06;;;;;;;12.30;8.10;;;;;;;17.43;100.00;98089.55;105661;1281;25287;-86
2022/08/29 06:29:34;;;;;;;12.00;9.30;;;;;;;17.40;100.00;98090.15;105701;1281;25542;-85
2022/08/29 06:32:12;;;;;;;10.80;7.50;;;;;;;17.32;100.00;98090.50;105725;1281;25558;-86
2022/08/29 06:34:40;;;;;;;11.70;8.50;;;;;;;17.28;100.00;98096.42;105407;1281;25394;-84
2022/08/29 06:37:08;;;;;;;10.60;7.90;;;;;;;17.28;100.00;98102.89;105737;1281;22559;-85
2022/08/29 06:39:36;;;;;;;13.50;8.90;;;;;;;17.30;100.00;98097.36;105697;1281;25359;-86
2022/08/29 06:42:05;;;;;;;10.80;8.50;;;;;;;17.35;100.00;98095.48;105688;1281;26495;-86
2022/08/29 06:44:33;;;;;;;10.60;7.40;;;;;;;17.40;100.00;98098.39;105532;1281;24430;-86
2022/08/29 06:47:01;;;;;;;10.00;7.90;;;;;;;17.46;100.00;98098.67;105727;1281;22547;-82
2022/08/29 06:49:32;;;;;;;10.40;8.60;;;;;;;17.55;100.00;98103.31;105388;1283;22557;-83
2022/08/29 06:52:00;;;;;;;9.50;8.30;;;;;;;17.59;100.00;98108.59;105637;1281;22714;-84
2022/08/29 06:54:28;;;;;;;14.20;8.60;;;;;;;17.66;100.00;98114.66;106044;1282;22531;-85
2022/08/29 06:56:58;;;;;;;9.70;8.20;;;;;;;17.66;100.00;98116.52;106088;1280;25365;-84
2022/08/29 06:59:27;;;;;;;9.70;8.10;;;;;;;17.65;100.00;98116.71;106015;1280;22728;-84
2022/08/29 07:01:55;;;;;;;10.70;8.70;;;;;;;17.67;100.00;98117.88;106079;1279;22607;-85
2022/08/29 07:04:23;;;;;;;10.90;9.50;;;;;;;17.67;100.00;98127.61;105920;1280;22553;-85
2022/08/29 07:06:53;;;;;;;16.50;9.70;;;;;;;17.66;99.79;98126.86;105963;1280;22560;-84
2022/08/29 07:09:21;;;;;;;10.70;8.90;;;;;;;17.64;99.17;98132.52;105790;1280;24413;-84
2022/08/29 07:11:49;;;;;;;14.70;8.50;;;;;;;17.69;99.13;98131.11;105805;1280;22567;-84
2022/08/29 07:14:17;;;;;;;13.50;9.00;;;;;;;17.72;98.55;98130.48;105873;1280;22560;-84
2022/08/29 07:16:46;;;;;;;12.60;9.40;;;;;;;17.77;98.89;98136.34;105704;1280;22552;-85
2022/08/29 07:19:14;;;;;;;9.50;7.90;;;;;;;17.83;98.98;98140.87;105630;1280;22863;-83
2022/08/29 07:21:42;;;;;;;15.40;9.30;;;;;;;17.94;97.82;98137.77;105820;1280;22709;-83
2022/08/29 07:24:10;;;;;;;12.80;9.40;;;;;;;18.03;96.72;98136.17;106047;1280;22576;-84
2022/08/29 07:26:42;;;;;;;13.60;9.50;;;;;;;18.05;95.88;98139.05;106008;1280;22574;-83
2022/08/29 07:29:16;;;;;;;16.20;10.00;;;;;;;18.08;96.64;98141.02;105831;1281;24215;-84
2022/08/29 07:31:44;;;;;;;;;;;;;;;18.08;95.23;98144.48;105618;1281;26505;-84
2022/08/29 07:34:13;;;;;;;11.80;9.80;;;;;;;18.05;95.31;98145.81;105584;1282;24253;-84
2022/08/29 07:36:41;;;;;;;12.10;8.50;;;;;;;18.09;95.11;98146.34;105939;1281;25460;-84
2022/08/29 07:39:13;;;;;;;12.50;9.50;;;;;;;18.20;93.13;98144.44;105791;1280;23971;-85
2022/08/29 07:41:43;;;;;;;13.00;7.80;;;;;;;18.36;94.72;98144.91;105959;1280;22760;-82
2022/08/29 07:44:12;;;;;;;10.30;7.30;;;;;;;18.55;93.04;98151.42;105910;1280;22596;-83
2022/08/29 07:46:41;;;;;;;12.30;7.00;;;;;;;18.56;92.09;98151.37;106064;1280;22624;-85
2022/08/29 07:49:11;;;;;;;8.60;7.00;;;;;;;18.47;90.67;98148.42;106079;1280;25353;-84
2022/08/29 07:51:39;;;;;;;10.40;6.80;;;;;;;18.39;91.88;98147.26;106185;1280;22639;-85
2022/08/29 07:54:15;;;;;;;10.90;6.90;;;;;;;18.53;91.69;98144.70;106152;1280;23292;-84
2022/08/29 07:56:45;;;;;;;12.30;7.90;;;;;;;18.73;91.37;98145.77;105815;1280;25421;-85
2022/08/29 07:59:15;;;;;;;9.50;7.30;;;;;;;18.96;91.71;98143.93;105929;1280;25210;-85
2022/08/29 08:01:43;;;;;;;9.80;7.30;;;;;;;19.15;92.18;98143.84;105921;1280;25331;-85
2022/08/29 08:04:12;;;;;;;12.30;8.80;;;;;;;19.25;89.87;98146.36;105835;1280;22643;-84
2022/08/29 08:06:41;;;;;;;14.80;10.40;;;;;;;19.14;88.01;98149.25;106092;1280;23951;-82
2022/08/29 08:09:12;;;;;;;13.30;9.80;;;;;;;18.99;87.56;98155.80;105864;1280;24331;-83
2022/08/29 08:11:42;;;;;;;12.90;8.70;;;;;;;18.87;88.65;98157.04;106134;1280;22553;-84
2022/08/29 08:14:10;;;;;;;12.90;8.80;;;;;;;18.87;89.11;98162.09;105965;1280;26719;-85
2022/08/29 08:16:38;;;;;;;10.40;8.10;;;;;;;18.94;89.38;98161.13;106129;1280;22606;-85
2022/08/29 08:19:15;;;;;;;9.20;8.00;;;;;;;19.04;89.83;98162.80;106185;1280;24275;-83
2022/08/29 08:21:44;;;;;;;10.30;8.20;;;;;;;19.13;88.76;98165.55;106056;1279;22622;-84
2022/08/29 08:24:19;;;;;;;10.50;8.20;;;;;;;19.19;87.95;98169.21;105940;1280;23346;-86
2022/08/29 08:26:47;;;;;;;10.10;7.30;;;;;;;19.22;87.91;98164.46;105893;1280;22545;-86
2022/08/29 08:29:16;;;;;;;9.80;7.70;;;;;;;19.33;88.24;98167.79;106064;1280;22709;-84
2022/08/29 08:31:48;;;;;;;14.10;9.10;;;;;;;19.42;87.55;98167.81;106143;1280;25284;-85
2022/08/29 08:34:18;;;;;;;15.70;9.80;;;;;;;19.39;86.86;98163.76;106107;1280;22596;-85
2022/08/29 08:36:46;;;;;;;12.30;9.70;;;;;;;19.33;87.20;98161.89;106123;1280;24282;-85
2022/08/29 08:39:14;;;;;;;12.80;8.80;;;;;;;19.38;85.91;98159.19;106146;1280;23959;-84
2022/08/29 08:42:02;;;;;;;8.00;7.00;;;;;;;19.50;86.69;98158.33;106104;1280;24089;-86
2022/08/29 08:45:11;;;;;;;9.90;7.00;;;;;;;19.60;82.43;98159.05;106018;1280;24224;-85
2022/08/29 08:47:42;;;;;;;10.60;8.30;;;;;;;19.71;83.95;98166.01;105227;1287;22899;-85
2022/08/29 08:50:33;;;;;;;13.70;7.90;;;;;;;19.82;82.51;98163.40;104996;1287;24120;-84
2022/08/29 08:53:11;;;;;;;13.90;8.70;;;;;;;19.95;83.35;98169.48;105101;1287;22567;-89
2022/08/29 08:55:46;;;;;;;12.80;8.10;;;;;;;20.13;83.91;98165.69;105380;1287;25314;-82
2022/08/29 08:58:28;;;;;;;12.70;8.50;;;;;;;20.31;82.91;98169.93;105403;1287;25361;-89
2022/08/29 09:01:02;;;;;;;9.60;6.40;;;;;;;20.31;81.21;98170.31;105039;1288;22871;-84
2022/08/29 09:04:04;;;;;;;7.30;5.90;;;;;;;20.33;80.36;98165.27;105269;1287;22576;-83
2022/08/29 09:06:47;;;;;;;8.30;6.30;;;;;;;20.34;78.33;98164.61;105210;1287;25414;-85
2022/08/29 09:09:56;;;;;;;6.90;5.20;;;;;;;20.28;75.12;98172.92;105139;1287;25255;-84
2022/08/29 09:13:03;;;;;;;10.40;6.50;;;;;;;20.07;74.18;98167.34;105190;1287;22542;-85
2022/08/29 09:15:47;;;;;;;8.30;5.80;;;;;;;19.93;74.95;98173.04;106610;1287;25328;-83
2022/08/29 09:18:37;;;;;;;6.50;5.80;;;;;;;19.92;75.19;98171.70;105078;1287;22859;-86
2022/08/29 09:21:19;;;;;;;9.40;5.80;;;;;;;20.03;74.71;98166.32;105194;1280;22575;-83
2022/08/29 09:24:30;;;;;;;7.70;5.50;;;;;;;20.34;73.11;98164.13;105887;1280;22636;-86
2022/08/29 09:26:58;;;;;;;8.50;5.40;;;;;;;20.46;72.25;98163.77;105962;1280;24281;-83
2022/08/29 09:29:29;;;;;;;8.90;5.80;;;;;;;20.58;71.97;98165.55;106012;1280;22587;-82
2022/08/29 09:32:10;;;;;;;10.50;5.80;;;;;;;20.65;71.41;98164.68;106001;1280;22556;-84
2022/08/29 09:34:43;;;;;;;7.60;5.90;;;;;;;20.67;72.03;98164.89;106167;1280;22861;-85
2022/08/29 09:37:33;;;;;;;9.10;5.70;;;;;;;20.65;71.02;98164.07;105929;1281;24253;-87
2022/08/29 09:40:09;;;;;;;11.30;5.90;;;;;;;20.56;71.97;98161.43;106152;1280;23269;-86
2022/08/29 09:42:45;;;;;;;6.90;5.40;;;;;;;20.74;71.64;98167.45;106080;1280;23048;-87
2022/08/29 09:45:23;;;;;;;6.90;5.20;;;;;;;20.93;70.30;98166.98;106022;1280;23350;-86
2022/08/29 09:48:14;;;;;;;9.30;5.40;;;;;;;21.02;70.10;98163.58;106013;1280;25347;-85
2022/08/29 09:50:43;;;;;;;11.70;5.60;;;;;;;21.03;69.85;98161.92;106147;1280;24260;-85
2022/08/29 09:53:11;;;;;;;7.10;5.50;;;;;;;21.00;70.34;98156.95;104525;1280;2177027;-84
2022/08/29 09:55:52;;;;;;;9.60;5.50;;;;;;;21.03;69.17;98151.06;106083;1280;22701;-87
2022/08/29 09:58:20;;;;;;;9.20;5.50;;;;;;;21.18;69.19;98153.31;106169;1280;25297;-85
2022/08/29 10:01:03;;;;;;;6.80;5.40;;;;;;;21.32;67.87;98157.72;106135;1280;22649;-84
2022/08/29 10:03:37;;;;;;;8.00;5.10;;;;;;;21.14;66.83;98149.64;106158;1280;25421;-85
2022/08/29 10:06:15;;;;;;;9.30;5.50;;;;;;;20.99;65.31;98153.02;106133;1280;22627;-84
2022/08/29 10:09:17;;;;;;;6.90;4.70;;;;;;;20.89;67.21;98150.77;106163;1280;24690;-82
2022/08/29 10:11:54;;;;;;;6.80;5.40;;;;;;;20.81;66.56;98154.92;106029;1280;23894;-83
2022/08/29 10:14:40;;;;;;;7.70;6.20;;;;;;;20.67;67.30;98157.37;106130;1280;23420;-82
2022/08/29 10:20:05;;;;;;;10.90;6.10;;;;;;;21.20;68.17;98152.94;105951;1280;22601;-82
2022/08/29 10:22:51;;;;;;;8.80;6.00;;;;;;;21.40;66.64;98160.54;106624;1280;22550;-84
2022/08/29 10:25:38;;;;;;;11.80;6.40;;;;;;;21.55;65.47;98161.38;106419;1280;25389;-82
2022/08/29 10:28:13;;;;;;;11.60;6.90;;;;;;;21.65;65.02;98159.84;105885;1281;25460;-83
2022/08/29 10:30:52;;;;;;;10.30;7.20;;;;;;;21.84;65.81;98149.64;105970;1280;25214;-83
2022/08/29 10:33:25;;;;;;;9.30;6.80;;;;;;;22.15;66.33;98153.04;106050;1280;25372;-83
2022/08/29 10:36:16;;;;;;;9.70;8.60;;;;;;;22.28;65.37;98158.19;106042;1280;22541;-83
2022/08/29 10:38:46;;;;;;;11.80;8.90;;;;;;;22.07;65.70;98154.72;106178;1280;22560;-83
2022/08/29 10:41:42;;;;;;;13.00;9.30;;;;;;;22.01;65.87;98157.52;106065;1280;25308;-84
2022/08/29 10:44:38;;;;;;;9.80;7.90;;;;;;;21.92;66.29;98158.70;105921;1280;22901;-83
2022/08/29 10:47:24;;;;;;;12.90;8.10;;;;;;;21.75;66.92;98155.61;105984;1279;25188;-83
2022/08/29 10:49:58;;;;;;;14.00;9.50;;;;;;;21.76;67.34;98156.50;105920;1280;22578;-83
2022/08/29 10:52:34;;;;;;;;;;;;;;;21.71;66.86;98158.92;106028;1280;22538;-83
2022/08/29 10:55:08;;;;;;;10.90;8.20;;;;;;;21.51;66.92;98164.98;105959;1280;22577;-83
2022/08/29 10:57:46;;;;;;;13.10;8.50;;;;;;;21.26;67.10;98169.20;105929;1280;23187;-82
2022/08/29 11:00:24;;;;;;;11.00;8.50;;;;;;;21.03;67.20;98167.04;105862;1281;25351;-83
2022/08/29 11:03:21;;;;;;;14.50;8.80;;;;;;;20.87;67.40;98173.54;105751;1280;24211;-83
2022/08/29 11:05:58;;;;;;;12.20;9.00;;;;;;;20.93;67.70;98171.99;106064;1280;22776;-83
2022/08/29 11:08:50;;;;;;;11.70;7.70;;;;;;;21.17;67.27;98172.39;106003;1280;24220;-83
2022/08/29 11:11:20;;;;;;;10.70;7.80;;;;;;;21.52;67.08;98172.67;105812;1280;22581;-83
2022/08/29 11:13:57;;;;;;;9.10;7.50;;;;;;;21.82;65.92;98166.61;105974;1280;22750;-83
2022/08/29 11:16:48;;;;;;;13.30;8.90;;;;;;;22.06;64.18;98167.87;105987;1280;25634;-83
2022/08/29 11:19:38;;;;;;;34.20;18.40;;;;;;;22.26;63.83;98159.02;106090;1280;22718;-83
2022/08/29 11:22:26;;;;;;;11.80;7.20;;;;;;;22.40;61.76;98161.58;106149;1280;22716;-85
2022/08/29 11:25:13;;;;;;;36.40;19.60;;;;;;;22.44;61.35;98153.48;105827;1280;25209;-82
2022/08/29 11:28:09;;;;;;;10.40;7.10;;;;;;;22.61;60.82;98157.01;105960;1280;22991;-82
2022/08/29 11:30:49;;;;;;;16.30;10.20;;;;;;;22.87;60.29;98151.84;106088;1280;22583;-83
2022/08/29 11:34:05;;;;;;;10.60;7.00;;;;;;;22.86;59.62;98150.09;106280;1280;22568;-83
2022/08/29 11:36:53;;;;;;;8.50;6.50;;;;;;;22.44;60.37;98149.70;105848;1280;24198;-83
2022/08/29 11:40:02;;;;;;;10.80;7.00;;;;;;;22.35;61.26;98147.70;105944;1280;25739;-83
2022/08/29 11:42:34;;;;;;;8.70;7.10;;;;;;;22.42;60.82;98153.28;105620;1280;22786;-83